Time;durP1;ratioP1;P1;durP2;ratioP2;P2;SDS_P1;SDS_P2;PMS_P1;PMS_P2;Temp;Humidity;BMP_temperature;BMP_pressure;BME280_temperature;BME280_humidity;BME280_pressure;Samples;Min_cycle;Max_cycle;Signal;HPM_P1;HPM_P2
2021/03/25 00:01:29;;;;;;;;;;;18.60;53.50;;;;;;5010601;28;19967;-61
2021/03/25 00:03:55;;;;;;;;;;;18.60;53.50;;;;;;5013259;28;20020;-59
2021/03/25 00:06:21;;;;;;;;;;;18.60;53.40;;;;;;5005208;28;19943;-58
2021/03/25 00:08:46;;;;;;;;;;;18.60;53.40;;;;;;5013114;28;19945;-60
2021/03/25 00:11:12;;;;;;;;;;;18.60;53.40;;;;;;5011044;28;19966;-57
2021/03/25 00:13:37;;;;;;;;;;;18.60;53.30;;;;;;4999533;28;19939;-60
2021/03/25 00:16:04;;;;;;;;;;;18.60;53.30;;;;;;5016809;28;19939;-61
2021/03/25 00:18:30;;;;;;;;;;;18.60;53.30;;;;;;5012096;28;20614;-59
2021/03/25 00:20:55;;;;;;;;;;;18.60;53.20;;;;;;4998270;28;19939;-59
2021/03/25 00:23:21;;;;;;;;;;;18.60;53.20;;;;;;5019252;28;19918;-58
2021/03/25 00:25:46;;;;;;;;;;;18.60;53.20;;;;;;5010598;28;20370;-60
2021/03/25 00:28:12;;;;;;;;;;;18.60;53.10;;;;;;5008856;28;19924;-59
2021/03/25 00:30:37;;;;;;;;;;;18.60;53.00;;;;;;4990980;28;19996;-59
2021/03/25 00:33:03;;;;;;;;;;;18.60;53.00;;;;;;5009871;28;20185;-60
2021/03/25 00:35:29;;;;;;;;;;;18.60;53.00;;;;;;5009717;28;19917;-58
2021/03/25 00:37:54;;;;;;;;;;;18.60;52.90;;;;;;5008678;28;20447;-59
2021/03/25 00:40:20;;;;;;;;;;;18.60;52.90;;;;;;4981441;28;20339;-60
2021/03/25 00:42:45;;;;;;;;;;;18.60;52.80;;;;;;4998966;28;20106;-59
2021/03/25 00:45:14;;;;;;;;;;;18.60;52.70;;;;;;5008904;28;19928;-58
2021/03/25 00:47:39;;;;;;;;;;;18.60;52.80;;;;;;5009246;28;19956;-60
2021/03/25 00:50:06;;;;;;;;;;;18.60;52.70;;;;;;4987924;28;20024;-59
2021/03/25 00:52:32;;;;;;;;;;;18.60;52.70;;;;;;5002364;28;20003;-59
2021/03/25 00:54:57;;;;;;;;;;;18.60;52.70;;;;;;5021714;28;19919;-59
2021/03/25 00:57:23;;;;;;;;;;;18.60;52.60;;;;;;5004659;28;19920;-61
2021/03/25 00:59:48;;;;;;;;;;;18.60;52.60;;;;;;5011298;28;20383;-60
2021/03/25 01:02:14;;;;;;;;;;;18.60;52.60;;;;;;5007748;28;19913;-58
2021/03/25 01:04:39;;;;;;;;;;;18.60;52.50;;;;;;5006091;28;19920;-60
2021/03/25 01:07:05;;;;;;;;;;;18.60;52.50;;;;;;5010735;28;19979;-60
2021/03/25 01:09:30;;;;;;;;;;;18.60;52.50;;;;;;5002142;28;20356;-59
2021/03/25 01:11:56;;;;;;;;;;;18.60;52.40;;;;;;5011554;28;19913;-58
2021/03/25 01:14:25;;;;;;;;;;;18.60;52.30;;;;;;5009778;28;19921;-61
2021/03/25 01:16:51;;;;;;;;;;;18.50;52.30;;;;;;5000311;28;20012;-59
2021/03/25 01:19:18;;;;;;;;;;;18.50;52.40;;;;;;4987501;28;19992;-60
2021/03/25 01:21:44;;;;;;;;;;;18.50;52.30;;;;;;4995426;28;20392;-58
2021/03/25 01:24:09;;;;;;;;;;;18.50;52.30;;;;;;4983042;28;19913;-61
2021/03/25 01:26:35;;;;;;;;;;;18.50;52.30;;;;;;4991373;28;20128;-59
2021/03/25 01:29:00;;;;;;;;;;;18.50;52.30;;;;;;5031466;28;20281;-61
2021/03/25 01:31:29;;;;;;;;;;;18.50;52.30;;;;;;5021741;28;20436;-60
2021/03/25 01:33:54;;;;;;;;;;;18.60;52.30;;;;;;5008849;28;20209;-59
2021/03/25 01:36:20;;;;;;;;;;;18.50;52.30;;;;;;4993657;28;19909;-60
2021/03/25 01:38:45;;;;;;;;;;;18.50;52.30;;;;;;5006293;28;20096;-60
2021/03/25 01:41:11;;;;;;;;;;;18.50;52.20;;;;;;5003352;28;20229;-60
2021/03/25 01:43:37;;;;;;;;;;;18.50;52.20;;;;;;5015508;28;19936;-59
2021/03/25 01:46:21;;;;;;;;;;;18.50;52.10;;;;;;5001697;28;19917;-59
2021/03/25 01:48:48;;;;;;;;;;;18.50;52.10;;;;;;4992890;28;20405;-60
2021/03/25 01:51:24;;;;;;;;;;;18.50;52.00;;;;;;5002491;28;20275;-59
2021/03/25 01:54:08;;;;;;;;;;;18.50;51.90;;;;;;5008675;28;20341;-58
2021/03/25 01:56:35;;;;;;;;;;;18.50;51.90;;;;;;5011599;28;20693;-61
2021/03/25 01:59:04;;;;;;;;;;;18.60;51.80;;;;;;5003105;28;19913;-59
2021/03/25 02:01:43;;;;;;;;;;;18.60;51.70;;;;;;4978102;28;19917;-61
2021/03/25 02:04:21;;;;;;;;;;;18.60;51.80;;;;;;5011438;28;20394;-61
2021/03/25 02:06:51;;;;;;;;;;;18.60;51.60;;;;;;5006210;28;19929;-60
2021/03/25 02:09:34;;;;;;;;;;;18.60;51.60;;;;;;5004302;28;19971;-59
2021/03/25 02:12:18;;;;;;;;;;;18.60;51.60;;;;;;4998504;28;20024;-58
2021/03/25 02:15:05;;;;;;;;;;;18.60;51.50;;;;;;5008796;28;20363;-61
2021/03/25 02:17:50;;;;;;;;;;;18.60;51.50;;;;;;5006423;28;19913;-59
2021/03/25 02:20:34;;;;;;;;;;;18.60;51.40;;;;;;5001222;28;19963;-60
2021/03/25 02:23:05;;;;;;;;;;;18.50;51.50;;;;;;5001807;28;20444;-60
2021/03/25 02:25:34;;;;;;;;;;;18.60;51.40;;;;;;5009257;28;19913;-61
2021/03/25 02:28:14;;;;;;;;;;;18.60;51.30;;;;;;5004697;28;19917;-58
2021/03/25 02:30:46;;;;;;;;;;;18.60;51.30;;;;;;5007840;28;19963;-60
2021/03/25 02:33:12;;;;;;;;;;;18.60;51.30;;;;;;4977779;28;19913;-59
2021/03/25 02:35:41;;;;;;;;;;;18.60;51.30;;;;;;5006258;28;19948;-60
2021/03/25 02:38:08;;;;;;;;;;;18.60;51.20;;;;;;5003806;28;19928;-60
2021/03/25 02:40:35;;;;;;;;;;;18.60;51.10;;;;;;4996780;28;19937;-60
2021/03/25 02:43:02;;;;;;;;;;;18.60;51.10;;;;;;5002385;28;19988;-59
2021/03/25 02:45:28;;;;;;;;;;;18.50;51.10;;;;;;5005003;28;20052;-59
2021/03/25 02:47:58;;;;;;;;;;;18.60;51.80;;;;;;4972524;28;19917;-60
2021/03/25 02:50:43;;;;;;;;;;;18.60;51.10;;;;;;5010556;28;20290;-56
2021/03/25 02:53:27;;;;;;;;;;;18.50;51.10;;;;;;4996100;28;19936;-59
2021/03/25 02:55:53;;;;;;;;;;;18.50;51.00;;;;;;5009259;28;19920;-61
2021/03/25 02:58:20;;;;;;;;;;;18.60;51.00;;;;;;5010283;28;20692;-58
2021/03/25 03:00:47;;;;;;;;;;;18.50;51.00;;;;;;5006044;28;19924;-60
2021/03/25 03:03:22;;;;;;;;;;;18.50;51.00;;;;;;5008199;28;20409;-60
2021/03/25 03:05:48;;;;;;;;;;;18.50;50.90;;;;;;5013344;28;20385;-60
2021/03/25 03:08:15;;;;;;;;;;;18.50;50.90;;;;;;5003613;28;20178;-57
2021/03/25 03:11:00;;;;;;;;;;;18.50;50.90;;;;;;5006342;28;19920;-58
2021/03/25 03:13:27;;;;;;;;;;;18.60;50.90;;;;;;5001317;28;19956;-60
2021/03/25 03:16:00;;;;;;;;;;;18.60;50.90;;;;;;5010211;28;19945;-59
2021/03/25 03:18:34;;;;;;;;;;;18.50;50.80;;;;;;5003976;28;19989;-60
2021/03/25 03:21:02;;;;;;;;;;;18.50;50.80;;;;;;5013911;28;19921;-61
2021/03/25 03:23:28;;;;;;;;;;;18.50;50.80;;;;;;5005770;28;20017;-57
2021/03/25 03:25:57;;;;;;;;;;;18.50;50.70;;;;;;5014424;28;20000;-60
2021/03/25 03:28:24;;;;;;;;;;;18.50;50.70;;;;;;5005935;28;19917;-60
2021/03/25 03:30:50;;;;;;;;;;;18.60;50.70;;;;;;5016160;28;20398;-59
2021/03/25 03:33:16;;;;;;;;;;;18.50;50.60;;;;;;5009793;28;19924;-60
2021/03/25 03:35:42;;;;;;;;;;;18.50;50.60;;;;;;5013653;28;19921;-58
2021/03/25 03:38:11;;;;;;;;;;;18.60;50.60;;;;;;5011942;28;19917;-60
2021/03/25 03:40:38;;;;;;;;;;;18.50;50.60;;;;;;5010608;28;19941;-60
2021/03/25 03:43:04;;;;;;;;;;;18.50;50.50;;;;;;5011161;28;19917;-60
2021/03/25 03:45:30;;;;;;;;;;;18.50;50.50;;;;;;5012338;28;19917;-58
2021/03/25 03:47:56;;;;;;;;;;;18.50;50.50;;;;;;5011869;28;20539;-66
2021/03/25 03:50:31;;;;;;;;;;;18.50;50.50;;;;;;5008332;28;19918;-58
2021/03/25 03:52:57;;;;;;;;;;;18.50;50.50;;;;;;5010978;28;19921;-60
2021/03/25 03:55:22;;;;;;;;;;;18.50;50.40;;;;;;5013362;28;20030;-59
2021/03/25 03:57:50;;;;;;;;;;;18.50;50.40;;;;;;5020727;28;19913;-59
2021/03/25 04:00:16;;;;;;;;;;;18.50;50.50;;;;;;4996185;28;19921;-60
2021/03/25 04:02:46;;;;;;;;;;;18.40;50.40;;;;;;5011134;28;19927;-59
2021/03/25 04:05:26;;;;;;;;;;;18.40;50.40;;;;;;5009825;28;19955;-60
2021/03/25 04:07:55;;;;;;;;;;;18.40;50.40;;;;;;5011678;28;19925;-60
2021/03/25 04:10:20;;;;;;;;;;;18.40;50.30;;;;;;5012954;28;19917;-61
2021/03/25 04:12:51;;;;;;;;;;;18.40;50.30;;;;;;5011560;28;19918;-61
2021/03/25 04:15:26;;;;;;;;;;;18.40;50.30;;;;;;5011728;28;19917;-60
2021/03/25 04:18:06;;;;;;;;;;;18.40;50.30;;;;;;5006721;28;19940;-60
2021/03/25 04:20:32;;;;;;;;;;;18.40;50.30;;;;;;5003894;28;19925;-60
2021/03/25 04:22:57;;;;;;;;;;;18.40;50.30;;;;;;5011181;28;20081;-59
2021/03/25 04:25:25;;;;;;;;;;;18.40;50.20;;;;;;5010179;28;20507;-56
2021/03/25 04:27:52;;;;;;;;;;;18.40;50.30;;;;;;4998872;28;20326;-60
2021/03/25 04:30:27;;;;;;;;;;;18.40;50.30;;;;;;4999551;28;19913;-59
2021/03/25 04:32:53;;;;;;;;;;;18.40;50.20;;;;;;4999983;28;19940;-60
2021/03/25 04:35:19;;;;;;;;;;;18.40;50.20;;;;;;5011217;28;19916;-60
2021/03/25 04:37:45;;;;;;;;;;;18.40;50.30;;;;;;5010121;28;19917;-60
2021/03/25 04:40:12;;;;;;;;;;;18.40;50.20;;;;;;4990297;28;19920;-60
2021/03/25 04:42:39;;;;;;;;;;;18.40;50.20;;;;;;5008335;28;19917;-59
2021/03/25 04:45:07;;;;;;;;;;;18.40;50.20;;;;;;5010357;28;19917;-58
2021/03/25 04:47:33;;;;;;;;;;;18.30;50.20;;;;;;5010648;28;19921;-57
2021/03/25 04:50:07;;;;;;;;;;;18.40;50.20;;;;;;5010696;28;20452;-59
2021/03/25 04:52:32;;;;;;;;;;;18.30;50.10;;;;;;5009305;28;20367;-59
2021/03/25 04:55:18;;;;;;;;;;;18.40;50.20;;;;;;4999339;28;19914;-60
2021/03/25 04:57:49;;;;;;;;;;;18.40;50.20;;;;;;5010020;28;19917;-60
2021/03/25 05:00:15;;;;;;;;;;;18.30;50.10;;;;;;5015411;28;19921;-59
2021/03/25 05:02:41;;;;;;;;;;;18.30;50.20;;;;;;5013947;28;21033;-59
2021/03/25 05:05:07;;;;;;;;;;;18.30;50.10;;;;;;5009560;28;19920;-59
2021/03/25 05:07:34;;;;;;;;;;;18.30;50.10;;;;;;5012665;28;19921;-61
2021/03/25 05:09:59;;;;;;;;;;;18.40;50.20;;;;;;5009589;28;20493;-58
2021/03/25 05:12:25;;;;;;;;;;;18.30;50.10;;;;;;5002237;28;19919;-60
2021/03/25 05:14:52;;;;;;;;;;;18.30;50.10;;;;;;5011625;28;19944;-59
2021/03/25 05:17:34;;;;;;;;;;;18.30;50.10;;;;;;5010311;28;20008;-60
2021/03/25 05:20:15;;;;;;;;;;;18.30;50.10;;;;;;4999490;28;19913;-59
2021/03/25 05:23:00;;;;;;;;;;;18.30;50.10;;;;;;5009735;28;20378;-58
2021/03/25 05:25:36;;;;;;;;;;;18.30;50.10;;;;;;5043777;22;19929;-58
2021/03/25 05:28:07;;;;;;;;;;;18.40;50.10;;;;;;5013029;28;20349;-58
2021/03/25 05:30:34;;;;;;;;;;;18.30;50.10;;;;;;5005889;28;19974;-55
2021/03/25 05:33:07;;;;;;;;;;;18.30;50.10;;;;;;5021936;28;19912;-60
2021/03/25 05:35:33;;;;;;;;;;;18.30;50.10;;;;;;5023789;28;19921;-60
2021/03/25 05:37:59;;;;;;;;;;;18.40;50.20;;;;;;5004241;28;19917;-60
2021/03/25 05:40:29;;;;;;;;;;;18.30;50.20;;;;;;5003233;28;19920;-57
2021/03/25 05:42:57;;;;;;;;;;;18.30;50.30;;;;;;5001855;28;19913;-58
2021/03/25 05:45:38;;;;;;;;;;;18.30;50.30;;;;;;5003994;28;19920;-59
2021/03/25 05:48:06;;;;;;;;;;;18.30;50.40;;;;;;5002967;28;19917;-58
2021/03/25 05:50:37;;;;;;;;;;;18.30;50.60;;;;;;5002863;28;20394;-58
2021/03/25 05:53:13;;;;;;;;;;;18.30;50.70;;;;;;4994654;28;19913;-59
2021/03/25 05:55:44;;;;;;;;;;;18.30;50.80;;;;;;5017738;28;20000;-57
2021/03/25 05:58:16;;;;;;;;;;;18.30;51.00;;;;;;5010996;28;19919;-60
2021/03/25 06:00:46;;;;;;;;;;;18.30;51.10;;;;;;5020339;28;20263;-57
2021/03/25 06:03:12;;;;;;;;;;;18.30;51.20;;;;;;5021048;28;19913;-57
2021/03/25 06:05:37;;;;;;;;;;;18.30;51.20;;;;;;5008624;28;19924;-58
2021/03/25 06:08:10;;;;;;;;;;;18.30;51.50;;;;;;5019163;28;20080;-56
2021/03/25 06:10:35;;;;;;;;;;;18.30;51.60;;;;;;5020068;28;20003;-56
2021/03/25 06:13:01;;;;;;;;;;;18.30;51.80;;;;;;5003268;28;20008;-59
2021/03/25 06:15:38;;;;;;;;;;;18.30;51.80;;;;;;5010936;28;19951;-59
2021/03/25 06:18:22;;;;;;;;;;;18.30;51.60;;;;;;4993887;28;20271;-58
2021/03/25 06:20:51;;;;;;;;;;;18.30;51.40;;;;;;5003195;28;19939;-54
2021/03/25 06:23:30;;;;;;;;;;;18.30;51.20;;;;;;5001296;28;20023;-58
2021/03/25 06:26:17;;;;;;;;;;;18.30;51.10;;;;;;5002007;28;20366;-57
2021/03/25 06:29:02;;;;;;;;;;;18.30;50.90;;;;;;5000772;28;22146;-57
2021/03/25 06:31:36;;;;;;;;;;;18.30;50.80;;;;;;5001997;28;19913;-58
2021/03/25 06:34:07;;;;;;;;;;;18.30;50.70;;;;;;5001809;28;19949;-59
2021/03/25 06:36:40;;;;;;;;;;;18.30;50.60;;;;;;5000348;28;19913;-59
2021/03/25 06:39:08;;;;;;;;;;;18.30;50.50;;;;;;5007831;28;19948;-59
2021/03/25 06:41:52;;;;;;;;;;;18.30;50.40;;;;;;5021392;28;20011;-59
2021/03/25 06:44:21;;;;;;;;;;;18.30;50.40;;;;;;4996192;28;19921;-59
2021/03/25 06:46:47;;;;;;;;;;;18.30;50.30;;;;;;5000737;28;20015;-59
2021/03/25 06:49:23;;;;;;;;;;;18.30;50.30;;;;;;5002765;28;20420;-59
2021/03/25 06:51:49;;;;;;;;;;;18.30;50.40;;;;;;5019526;28;20004;-59
2021/03/25 06:54:14;;;;;;;;;;;18.30;50.40;;;;;;5015029;28;19924;-58
2021/03/25 06:56:40;;;;;;;;;;;18.30;50.20;;;;;;4998763;28;20000;-58
2021/03/25 06:59:08;;;;;;;;;;;18.30;50.20;;;;;;5003466;28;20023;-59
2021/03/25 07:01:37;;;;;;;;;;;18.30;50.10;;;;;;5001023;28;19921;-58
2021/03/25 07:04:06;;;;;;;;;;;18.30;50.10;;;;;;5002017;28;19913;-59
2021/03/25 07:06:32;;;;;;;;;;;18.30;50.20;;;;;;5000194;28;19921;-59
2021/03/25 07:08:57;;;;;;;;;;;18.30;50.40;;;;;;5021681;28;19917;-58
2021/03/25 07:11:25;;;;;;;;;;;18.30;50.90;;;;;;5012624;28;20566;-56
2021/03/25 07:13:56;;;;;;;;;;;18.30;51.40;;;;;;5021591;28;20002;-59
2021/03/25 07:16:22;;;;;;;;;;;18.30;51.90;;;;;;5021742;28;19921;-60
2021/03/25 07:18:56;;;;;;;;;;;18.30;51.90;;;;;;5021117;28;19921;-59
2021/03/25 07:21:45;;;;;;;;;;;18.30;52.30;;;;;;5023389;28;19936;-59
2021/03/25 07:24:22;;;;;;;;;;;18.30;52.60;;;;;;5017567;28;19960;-60
2021/03/25 07:26:48;;;;;;;;;;;18.30;53.00;;;;;;5003190;28;19925;-60
2021/03/25 07:29:20;;;;;;;;;;;18.30;53.30;;;;;;5022043;28;19913;-60
2021/03/25 07:31:58;;;;;;;;;;;18.30;53.40;;;;;;5022402;28;19921;-58
2021/03/25 07:34:31;;;;;;;;;;;18.30;54.40;;;;;;5011736;28;19921;-58
2021/03/25 07:36:57;;;;;;;;;;;18.20;55.10;;;;;;5014936;28;20370;-58
2021/03/25 07:39:23;;;;;;;;;;;18.20;54.60;;;;;;5015068;28;19920;-59
2021/03/25 07:41:49;;;;;;;;;;;18.20;54.30;;;;;;5002031;28;19925;-59
2021/03/25 07:44:24;;;;;;;;;;;18.20;53.30;;;;;;5003759;28;19992;-58
2021/03/25 07:46:50;;;;;;;;;;;18.20;52.80;;;;;;5001925;28;20005;-59
2021/03/25 07:49:16;;;;;;;;;;;18.30;52.60;;;;;;5002549;28;20341;-58
2021/03/25 07:51:46;;;;;;;;;;;18.20;52.10;;;;;;5012986;28;19921;-59
2021/03/25 07:54:23;;;;;;;;;;;18.20;52.00;;;;;;5022362;28;20376;-59
2021/03/25 07:56:56;;;;;;;;;;;18.30;51.60;;;;;;5019595;28;19962;-59
2021/03/25 07:59:32;;;;;;;;;;;18.30;51.50;;;;;;5011749;28;19975;-58
2021/03/25 08:01:57;;;;;;;;;;;18.30;50.90;;;;;;5023123;28;20370;-58
2021/03/25 08:04:26;;;;;;;;;;;18.40;50.50;;;;;;5021723;28;19975;-59
2021/03/25 08:06:59;;;;;;;;;;;18.30;50.20;;;;;;5004623;28;20011;-58
2021/03/25 08:09:24;;;;;;;;;;;18.40;50.00;;;;;;5003642;28;19913;-58
2021/03/25 08:12:00;;;;;;;;;;;18.40;50.00;;;;;;5002594;28;20303;-57
2021/03/25 08:14:29;;;;;;;;;;;18.30;50.00;;;;;;4993589;28;19916;-58
2021/03/25 08:16:56;;;;;;;;;;;18.30;49.90;;;;;;5005132;28;20105;-59
2021/03/25 08:19:40;;;;;;;;;;;18.30;49.80;;;;;;4990468;28;19933;-58
2021/03/25 08:22:05;;;;;;;;;;;18.30;49.60;;;;;;5007008;28;20286;-59
2021/03/25 08:25:06;;;;;;;;;;;18.30;49.60;;;;;;5006666;28;19919;-59
2021/03/25 08:27:38;;;;;;;;;;;18.30;49.40;;;;;;4963894;28;19922;-57
2021/03/25 08:30:24;;;;;;;;;;;18.30;49.20;;;;;;4996112;28;19945;-57
2021/03/25 08:32:49;;;;;;;;;;;18.30;49.00;;;;;;5005512;28;19917;-57
2021/03/25 08:35:19;;;;;;;;;;;18.30;48.70;;;;;;5006393;28;19935;-58
2021/03/25 08:38:03;;;;;;;;;;;18.30;48.70;;;;;;5014886;28;19966;-60
2021/03/25 08:40:41;;;;;;;;;;;18.30;48.50;;;;;;5021397;28;19913;-58
2021/03/25 08:43:14;;;;;;;;;;;18.30;48.30;;;;;;5014246;28;20052;-58
2021/03/25 08:45:43;;;;;;;;;;;18.30;48.30;;;;;;5014309;28;19995;-56
2021/03/25 08:48:12;;;;;;;;;;;18.30;48.20;;;;;;5015211;28;19952;-54
2021/03/25 08:50:48;;;;;;;;;;;18.30;48.20;;;;;;5015806;28;19919;-56
2021/03/25 08:53:32;;;;;;;;;;;18.30;48.00;;;;;;5009580;28;20444;-58
2021/03/25 08:55:58;;;;;;;;;;;18.30;47.90;;;;;;5006720;28;19960;-58
2021/03/25 08:58:25;;;;;;;;;;;18.40;48.00;;;;;;5006387;28;19943;-59
2021/03/25 09:00:53;;;;;;;;;;;18.40;48.00;;;;;;5009129;28;20372;-59
2021/03/25 09:03:23;;;;;;;;;;;18.40;48.10;;;;;;5008128;28;19914;-55
2021/03/25 09:06:15;;;;;;;;;;;18.40;48.10;;;;;;5004183;28;20174;-58
2021/03/25 09:08:41;;;;;;;;;;;18.30;48.20;;;;;;5008606;28;19925;-58
2021/03/25 09:11:07;;;;;;;;;;;18.30;48.30;;;;;;5005109;28;19914;-57
2021/03/25 09:14:02;;;;;;;;;;;18.30;48.50;;;;;;5004765;28;20391;-59
2021/03/25 09:16:29;;;;;;;;;;;18.30;48.80;;;;;;5006240;28;19914;-58
2021/03/25 09:18:54;;;;;;;;;;;18.30;49.00;;;;;;5024124;28;19928;-59
2021/03/25 09:21:24;;;;;;;;;;;18.30;49.10;;;;;;5017179;28;19917;-60
2021/03/25 09:23:59;;;;;;;;;;;18.30;49.30;;;;;;5007498;28;19921;-59
2021/03/25 09:26:24;;;;;;;;;;;18.20;49.30;;;;;;5017079;28;19971;-58
2021/03/25 09:28:52;;;;;;;;;;;18.20;49.50;;;;;;5005408;28;19921;-59
2021/03/25 09:31:18;;;;;;;;;;;18.20;49.60;;;;;;5004805;28;19913;-58
2021/03/25 09:33:46;;;;;;;;;;;18.20;49.70;;;;;;5004654;28;19920;-59
2021/03/25 09:36:18;;;;;;;;;;;18.20;49.80;;;;;;5018688;28;19920;-59
2021/03/25 09:38:50;;;;;;;;;;;18.20;49.90;;;;;;5007685;28;19951;-59
2021/03/25 09:41:18;;;;;;;;;;;18.30;49.90;;;;;;5007368;28;19909;-58
2021/03/25 09:43:44;;;;;;;;;;;18.30;49.90;;;;;;5022104;28;19913;-60
2021/03/25 09:46:20;;;;;;;;;;;18.30;49.90;;;;;;5004266;28;19924;-57
2021/03/25 09:48:46;;;;;;;;;;;18.30;49.90;;;;;;5006713;28;19921;-58
2021/03/25 09:51:19;;;;;;;;;;;18.30;49.90;;;;;;5011723;28;19920;-58
2021/03/25 09:53:54;;;;;;;;;;;18.30;50.00;;;;;;5022729;28;19924;-58
2021/03/25 09:56:29;;;;;;;;;;;18.30;50.20;;;;;;5024186;28;19944;-57
2021/03/25 09:58:54;;;;;;;;;;;18.40;49.90;;;;;;5024359;28;19916;-58
2021/03/25 10:01:38;;;;;;;;;;;18.30;49.40;;;;;;5015869;28;19913;-59
2021/03/25 10:04:25;;;;;;;;;;;18.40;49.20;;;;;;5004947;28;20090;-58
2021/03/25 10:06:54;;;;;;;;;;;18.40;48.90;;;;;;4993823;28;19967;-60
2021/03/25 10:09:40;;;;;;;;;;;18.40;48.80;;;;;;5008230;28;19940;-60
2021/03/25 10:12:06;;;;;;;;;;;18.40;48.80;;;;;;4997119;28;19913;-60
2021/03/25 10:14:48;;;;;;;;;;;18.40;48.70;;;;;;5011467;28;19913;-59
2021/03/25 10:17:32;;;;;;;;;;;18.30;48.70;;;;;;5010136;28;19920;-59
2021/03/25 10:19:57;;;;;;;;;;;18.30;48.90;;;;;;5025007;28;19924;-60
2021/03/25 10:22:22;;;;;;;;;;;18.30;49.10;;;;;;5017192;28;19968;-59
2021/03/25 10:24:52;;;;;;;;;;;18.30;49.10;;;;;;5014039;28;19913;-58
2021/03/25 10:27:29;;;;;;;;;;;18.30;48.80;;;;;;5023943;28;19921;-58
2021/03/25 10:29:54;;;;;;;;;;;18.40;48.80;;;;;;4997429;28;19913;-58
2021/03/25 10:32:30;;;;;;;;;;;18.40;48.80;;;;;;5003507;28;19983;-59
2021/03/25 10:34:56;;;;;;;;;;;18.40;48.70;;;;;;5004642;28;19921;-60
2021/03/25 10:37:32;;;;;;;;;;;18.40;48.50;;;;;;5003239;28;19914;-60
2021/03/25 10:40:04;;;;;;;;;;;18.40;48.40;;;;;;4965531;28;20010;-57
2021/03/25 10:42:37;;;;;;;;;;;18.40;48.60;;;;;;5003465;28;19914;-61
2021/03/25 10:45:17;;;;;;;;;;;18.30;48.60;;;;;;5002837;28;19936;-60
2021/03/25 10:47:47;;;;;;;;;;;18.30;49.10;;;;;;5012327;28;19917;-59
2021/03/25 10:50:15;;;;;;;;;;;18.30;49.10;;;;;;5003103;28;20012;-59
2021/03/25 10:52:41;;;;;;;;;;;18.30;49.20;;;;;;5002366;28;19914;-59
2021/03/25 10:55:08;;;;;;;;;;;18.30;49.30;;;;;;5004263;28;20374;-57
2021/03/25 10:57:33;;;;;;;;;;;18.30;49.30;;;;;;5002297;28;20367;-60
2021/03/25 11:00:03;;;;;;;;;;;18.20;49.60;;;;;;5003790;28;19924;-59
2021/03/25 11:02:29;;;;;;;;;;;18.30;49.90;;;;;;5003101;28;19913;-60
2021/03/25 11:04:58;;;;;;;;;;;18.20;50.10;;;;;;5005895;28;19913;-61
2021/03/25 11:07:24;;;;;;;;;;;18.20;50.40;;;;;;5022482;28;19917;-61
2021/03/25 11:09:53;;;;;;;;;;;18.20;50.70;;;;;;5004210;28;19928;-59
2021/03/25 11:12:22;;;;;;;;;;;18.20;50.90;;;;;;5004876;28;20558;-61
2021/03/25 11:14:55;;;;;;;;;;;18.20;51.30;;;;;;5009261;28;19927;-60
2021/03/25 11:17:30;;;;;;;;;;;18.20;51.60;;;;;;5021570;28;19952;-60
2021/03/25 11:19:59;;;;;;;;;;;18.20;51.70;;;;;;5011717;28;19917;-59
2021/03/25 11:22:25;;;;;;;;;;;18.20;52.10;;;;;;5004060;28;19913;-59
2021/03/25 11:24:51;;;;;;;;;;;18.20;52.20;;;;;;5016313;28;19971;-60
2021/03/25 11:27:20;;;;;;;;;;;18.20;52.50;;;;;;5053880;23;19978;-63
2021/03/25 11:29:46;;;;;;;;;;;18.20;52.50;;;;;;5013955;28;19917;-63
2021/03/25 11:32:25;;;;;;;;;;;18.30;52.40;;;;;;5013623;28;19996;-65
2021/03/25 11:34:52;;;;;;;;;;;18.30;52.10;;;;;;5017336;28;19917;-65
2021/03/25 11:37:20;;;;;;;;;;;18.30;51.90;;;;;;5016568;28;19959;-65
2021/03/25 11:39:59;;;;;;;;;;;18.30;51.70;;;;;;5015930;28;19921;-66
2021/03/25 11:42:26;;;;;;;;;;;18.30;51.40;;;;;;5015932;28;19999;-65
2021/03/25 11:44:51;;;;;;;;;;;18.30;51.20;;;;;;5010945;28;20453;-65
2021/03/25 11:47:29;;;;;;;;;;;18.30;50.90;;;;;;5015287;28;19917;-64
2021/03/25 11:49:54;;;;;;;;;;;18.40;51.20;;;;;;5015255;28;19913;-66
2021/03/25 11:52:20;;;;;;;;;;;18.40;51.40;;;;;;5010636;28;20308;-65
2021/03/25 11:54:46;;;;;;;;;;;18.40;51.10;;;;;;5019351;28;19917;-64
2021/03/25 11:57:23;;;;;;;;;;;18.40;50.80;;;;;;5017199;28;20307;-65
2021/03/25 11:59:48;;;;;;;;;;;18.40;50.70;;;;;;5019909;28;20441;-64
2021/03/25 12:02:17;;;;;;;;;;;18.40;50.90;;;;;;5014929;28;19909;-65
2021/03/25 12:04:42;;;;;;;;;;;18.40;51.70;;;;;;5019657;28;20591;-65
2021/03/25 12:07:11;;;;;;;;;;;18.40;52.00;;;;;;5024730;28;19956;-65
2021/03/25 12:09:36;;;;;;;;;;;18.40;52.00;;;;;;5018385;28;19920;-66
2021/03/25 12:12:02;;;;;;;;;;;18.40;51.80;;;;;;5019164;28;20319;-66
2021/03/25 12:14:27;;;;;;;;;;;18.40;51.60;;;;;;5027733;28;19909;-66
2021/03/25 12:16:59;;;;;;;;;;;18.50;51.40;;;;;;5021030;28;19935;-65
2021/03/25 12:19:25;;;;;;;;;;;18.40;51.20;;;;;;5017264;28;19916;-66
2021/03/25 12:21:50;;;;;;;;;;;18.40;51.10;;;;;;5017037;28;19917;-66
2021/03/25 12:24:16;;;;;;;;;;;18.40;50.90;;;;;;5023766;28;19978;-66
2021/03/25 12:26:41;;;;;;;;;;;18.40;50.90;;;;;;5018983;28;19967;-65
2021/03/25 12:29:07;;;;;;;;;;;18.40;51.10;;;;;;5018303;28;19996;-64
2021/03/25 12:31:33;;;;;;;;;;;18.40;51.50;;;;;;5018776;28;19909;-65
2021/03/25 12:33:59;;;;;;;;;;;18.40;51.10;;;;;;5020417;28;19909;-65
2021/03/25 12:36:24;;;;;;;;;;;18.50;50.40;;;;;;5012399;28;19915;-64
2021/03/25 12:38:50;;;;;;;;;;;18.50;50.00;;;;;;5019963;28;19913;-66
2021/03/25 12:41:17;;;;;;;;;;;18.60;49.70;;;;;;5021298;28;19939;-66
2021/03/25 12:43:42;;;;;;;;;;;18.60;49.70;;;;;;5017984;28;19952;-65
2021/03/25 12:46:08;;;;;;;;;;;18.60;49.50;;;;;;5017265;28;19909;-64
2021/03/25 12:48:34;;;;;;;;;;;18.60;49.40;;;;;;5018154;28;19922;-65
2021/03/25 12:51:00;;;;;;;;;;;18.60;49.60;;;;;;5017862;28;19909;-64
2021/03/25 12:53:25;;;;;;;;;;;18.60;49.80;;;;;;5016978;28;19909;-66
2021/03/25 12:55:51;;;;;;;;;;;18.60;50.10;;;;;;5017464;28;19955;-65
2021/03/25 12:58:20;;;;;;;;;;;18.60;50.20;;;;;;5015134;28;19916;-66
2021/03/25 13:00:46;;;;;;;;;;;18.60;50.10;;;;;;5015173;28;20059;-65
2021/03/25 13:03:11;;;;;;;;;;;18.70;50.10;;;;;;5015040;28;19995;-65
2021/03/25 13:05:37;;;;;;;;;;;18.70;49.90;;;;;;5017742;28;19951;-65
2021/03/25 13:08:02;;;;;;;;;;;18.70;49.70;;;;;;5020920;28;20221;-64
2021/03/25 13:10:29;;;;;;;;;;;18.70;49.80;;;;;;5020466;28;19905;-65
2021/03/25 13:12:58;;;;;;;;;;;18.60;49.90;;;;;;5017377;28;19909;-65
2021/03/25 13:15:24;;;;;;;;;;;18.60;50.00;;;;;;5009997;28;19916;-65
2021/03/25 13:17:49;;;;;;;;;;;18.60;49.90;;;;;;5018764;28;19909;-64
2021/03/25 13:20:15;;;;;;;;;;;18.70;49.90;;;;;;5019780;28;19913;-65
2021/03/25 13:22:41;;;;;;;;;;;18.70;49.80;;;;;;5019531;28;20389;-68
2021/03/25 13:25:06;;;;;;;;;;;18.70;49.80;;;;;;5016948;28;20331;-68
2021/03/25 13:27:32;;;;;;;;;;;18.70;49.60;;;;;;5015384;28;19913;-67
2021/03/25 13:29:57;;;;;;;;;;;18.70;49.50;;;;;;5016455;28;19935;-66
2021/03/25 13:32:23;;;;;;;;;;;18.70;49.40;;;;;;5020966;28;20337;-68
2021/03/25 13:34:48;;;;;;;;;;;18.70;49.20;;;;;;5017865;28;19909;-65
2021/03/25 13:37:14;;;;;;;;;;;18.70;49.00;;;;;;5018947;28;19956;-65
2021/03/25 13:39:39;;;;;;;;;;;18.70;49.10;;;;;;5010322;28;19956;-66
2021/03/25 13:42:05;;;;;;;;;;;18.70;49.20;;;;;;5018054;28;20342;-67
2021/03/25 13:44:30;;;;;;;;;;;18.70;49.40;;;;;;5027461;28;19944;-67
2021/03/25 13:46:56;;;;;;;;;;;18.70;49.30;;;;;;5024091;28;19913;-65
2021/03/25 13:49:21;;;;;;;;;;;18.70;49.00;;;;;;5025253;28;20024;-66
2021/03/25 13:51:47;;;;;;;;;;;18.70;48.70;;;;;;5017153;28;19913;-67
2021/03/25 13:54:12;;;;;;;;;;;18.70;48.60;;;;;;5022119;28;19909;-66
2021/03/25 13:56:38;;;;;;;;;;;18.70;48.40;;;;;;5016891;28;19916;-66
2021/03/25 13:59:03;;;;;;;;;;;18.80;48.40;;;;;;5018637;28;19915;-67
2021/03/25 14:01:29;;;;;;;;;;;18.70;48.30;;;;;;5014936;28;20373;-66
2021/03/25 14:03:54;;;;;;;;;;;18.80;48.30;;;;;;5019655;28;19909;-65
2021/03/25 14:06:20;;;;;;;;;;;18.80;48.20;;;;;;5019503;28;19951;-67
2021/03/25 14:08:45;;;;;;;;;;;18.80;48.10;;;;;;5019102;28;20346;-67
2021/03/25 14:11:10;;;;;;;;;;;18.80;47.90;;;;;;5018225;28;19913;-66
2021/03/25 14:13:36;;;;;;;;;;;18.80;47.90;;;;;;5017676;28;20295;-67
2021/03/25 14:16:01;;;;;;;;;;;18.80;47.70;;;;;;5016132;28;19910;-66
2021/03/25 14:18:27;;;;;;;;;;;18.80;47.60;;;;;;5015499;28;19966;-66
2021/03/25 14:20:53;;;;;;;;;;;18.70;48.00;;;;;;5017194;28;19947;-66
2021/03/25 14:23:19;;;;;;;;;;;18.70;48.10;;;;;;5014681;28;19917;-66
2021/03/25 14:25:45;;;;;;;;;;;18.70;48.20;;;;;;5014971;28;19913;-67
2021/03/25 14:28:11;;;;;;;;;;;18.70;48.30;;;;;;5014403;28;19979;-67
2021/03/25 14:30:36;;;;;;;;;;;18.70;48.30;;;;;;5023359;28;19909;-66